sensor_id;sensor_type;location;lat;lon;timestamp;temperature;humidity
12622;DHT22;6376;48.182;-1.644;2024-02-15T00:00:21;13.90;95.70
12622;DHT22;6376;48.182;-1.644;2024-02-15T00:02:48;13.90;95.70
12622;DHT22;6376;48.182;-1.644;2024-02-15T00:05:14;13.90;95.70
12622;DHT22;6376;48.182;-1.644;2024-02-15T00:07:43;13.90;95.70
12622;DHT22;6376;48.182;-1.644;2024-02-15T00:10:09;13.90;95.70
12622;DHT22;6376;48.182;-1.644;2024-02-15T00:12:35;13.90;95.70
12622;DHT22;6376;48.182;-1.644;2024-02-15T00:15:01;13.90;95.70
12622;DHT22;6376;48.182;-1.644;2024-02-15T00:17:27;13.90;95.70
12622;DHT22;6376;48.182;-1.644;2024-02-15T00:19:55;13.90;95.70
12622;DHT22;6376;48.182;-1.644;2024-02-15T00:22:20;13.90;95.70
12622;DHT22;6376;48.182;-1.644;2024-02-15T00:24:46;13.80;95.60
12622;DHT22;6376;48.182;-1.644;2024-02-15T00:27:14;13.90;95.70
12622;DHT22;6376;48.182;-1.644;2024-02-15T00:29:41;13.80;95.70
12622;DHT22;6376;48.182;-1.644;2024-02-15T00:32:06;13.80;95.60
12622;DHT22;6376;48.182;-1.644;2024-02-15T00:34:32;13.80;95.70
12622;DHT22;6376;48.182;-1.644;2024-02-15T00:36:59;13.80;95.60
12622;DHT22;6376;48.182;-1.644;2024-02-15T00:39:24;13.80;95.60
12622;DHT22;6376;48.182;-1.644;2024-02-15T00:41:50;13.80;95.70
12622;DHT22;6376;48.182;-1.644;2024-02-15T00:44:16;13.80;95.60
12622;DHT22;6376;48.182;-1.644;2024-02-15T00:46:43;13.80;95.70
12622;DHT22;6376;48.182;-1.644;2024-02-15T00:49:08;13.80;95.70
12622;DHT22;6376;48.182;-1.644;2024-02-15T00:51:35;13.80;95.70
12622;DHT22;6376;48.182;-1.644;2024-02-15T00:54:02;13.80;95.70
12622;DHT22;6376;48.182;-1.644;2024-02-15T00:56:28;13.80;95.60
12622;DHT22;6376;48.182;-1.644;2024-02-15T00:58:56;13.80;95.60
12622;DHT22;6376;48.182;-1.644;2024-02-15T01:01:22;13.80;95.60
12622;DHT22;6376;48.182;-1.644;2024-02-15T01:03:47;13.80;95.60
12622;DHT22;6376;48.182;-1.644;2024-02-15T01:06:13;13.80;95.60
12622;DHT22;6376;48.182;-1.644;2024-02-15T01:08:39;13.80;95.60
12622;DHT22;6376;48.182;-1.644;2024-02-15T01:11:05;13.80;95.60
12622;DHT22;6376;48.182;-1.644;2024-02-15T01:13:31;13.80;96.00
12622;DHT22;6376;48.182;-1.644;2024-02-15T01:15:57;13.80;95.60
12622;DHT22;6376;48.182;-1.644;2024-02-15T01:18:23;13.80;95.60
12622;DHT22;6376;48.182;-1.644;2024-02-15T01:20:49;13.80;95.60
12622;DHT22;6376;48.182;-1.644;2024-02-15T01:23:15;13.80;95.60
12622;DHT22;6376;48.182;-1.644;2024-02-15T01:25:40;13.80;95.50
12622;DHT22;6376;48.182;-1.644;2024-02-15T01:28:06;13.80;95.60
12622;DHT22;6376;48.182;-1.644;2024-02-15T01:30:32;13.80;95.60
12622;DHT22;6376;48.182;-1.644;2024-02-15T01:32:58;13.80;95.60
12622;DHT22;6376;48.182;-1.644;2024-02-15T01:35:24;13.80;95.60
12622;DHT22;6376;48.182;-1.644;2024-02-15T01:37:50;13.80;95.60
12622;DHT22;6376;48.182;-1.644;2024-02-15T01:40:16;13.80;95.60
12622;DHT22;6376;48.182;-1.644;2024-02-15T01:42:45;13.80;95.60
12622;DHT22;6376;48.182;-1.644;2024-02-15T01:45:10;13.80;95.60
12622;DHT22;6376;48.182;-1.644;2024-02-15T01:47:39;13.80;95.60
12622;DHT22;6376;48.182;-1.644;2024-02-15T01:50:10;13.80;95.60
12622;DHT22;6376;48.182;-1.644;2024-02-15T01:52:37;13.80;95.60
12622;DHT22;6376;48.182;-1.644;2024-02-15T01:55:04;13.80;95.60
12622;DHT22;6376;48.182;-1.644;2024-02-15T01:57:36;13.80;95.50
12622;DHT22;6376;48.182;-1.644;2024-02-15T02:00:06;13.80;95.60
12622;DHT22;6376;48.182;-1.644;2024-02-15T02:02:34;13.80;95.50
12622;DHT22;6376;48.182;-1.644;2024-02-15T02:05:01;13.80;95.50
12622;DHT22;6376;48.182;-1.644;2024-02-15T02:07:28;13.80;95.50
12622;DHT22;6376;48.182;-1.644;2024-02-15T02:09:54;13.80;95.50
12622;DHT22;6376;48.182;-1.644;2024-02-15T02:12:19;13.80;95.50
12622;DHT22;6376;48.182;-1.644;2024-02-15T02:14:45;13.80;95.50
12622;DHT22;6376;48.182;-1.644;2024-02-15T02:17:12;13.80;95.50
12622;DHT22;6376;48.182;-1.644;2024-02-15T02:19:39;13.80;95.50
12622;DHT22;6376;48.182;-1.644;2024-02-15T02:22:05;13.80;95.50
12622;DHT22;6376;48.182;-1.644;2024-02-15T02:24:33;13.80;95.50
12622;DHT22;6376;48.182;-1.644;2024-02-15T02:27:04;13.80;95.50
12622;DHT22;6376;48.182;-1.644;2024-02-15T02:29:30;13.80;95.50
12622;DHT22;6376;48.182;-1.644;2024-02-15T02:31:57;13.80;95.50
12622;DHT22;6376;48.182;-1.644;2024-02-15T02:34:23;13.80;95.50
12622;DHT22;6376;48.182;-1.644;2024-02-15T02:36:50;13.80;95.60
12622;DHT22;6376;48.182;-1.644;2024-02-15T02:39:16;13.80;95.60
12622;DHT22;6376;48.182;-1.644;2024-02-15T02:41:42;13.80;95.60
12622;DHT22;6376;48.182;-1.644;2024-02-15T02:44:08;13.80;95.60
12622;DHT22;6376;48.182;-1.644;2024-02-15T02:46:34;13.80;95.60
12622;DHT22;6376;48.182;-1.644;2024-02-15T02:49:00;13.70;95.60
12622;DHT22;6376;48.182;-1.644;2024-02-15T02:51:25;13.80;95.60
12622;DHT22;6376;48.182;-1.644;2024-02-15T02:53:51;13.80;95.50
12622;DHT22;6376;48.182;-1.644;2024-02-15T02:56:17;13.80;95.90
12622;DHT22;6376;48.182;-1.644;2024-02-15T02:58:44;13.80;95.50
12622;DHT22;6376;48.182;-1.644;2024-02-15T03:01:10;13.80;95.50
12622;DHT22;6376;48.182;-1.644;2024-02-15T03:03:38;13.80;95.60
12622;DHT22;6376;48.182;-1.644;2024-02-15T03:06:05;13.70;95.50
12622;DHT22;6376;48.182;-1.644;2024-02-15T03:08:31;13.70;95.50
12622;DHT22;6376;48.182;-1.644;2024-02-15T03:10:57;13.70;95.50
12622;DHT22;6376;48.182;-1.644;2024-02-15T03:13:22;13.80;95.60
12622;DHT22;6376;48.182;-1.644;2024-02-15T03:15:48;13.70;95.50
12622;DHT22;6376;48.182;-1.644;2024-02-15T03:18:17;13.70;95.60
12622;DHT22;6376;48.182;-1.644;2024-02-15T03:20:43;13.70;95.60
12622;DHT22;6376;48.182;-1.644;2024-02-15T03:23:09;13.70;95.60
12622;DHT22;6376;48.182;-1.644;2024-02-15T03:25:34;13.70;95.60
12622;DHT22;6376;48.182;-1.644;2024-02-15T03:28:00;13.70;95.60
12622;DHT22;6376;48.182;-1.644;2024-02-15T03:30:31;13.70;95.60
12622;DHT22;6376;48.182;-1.644;2024-02-15T03:32:57;13.70;95.60
12622;DHT22;6376;48.182;-1.644;2024-02-15T03:35:25;13.70;95.60
12622;DHT22;6376;48.182;-1.644;2024-02-15T03:37:52;13.70;95.60
12622;DHT22;6376;48.182;-1.644;2024-02-15T03:40:19;13.70;95.70
12622;DHT22;6376;48.182;-1.644;2024-02-15T03:42:45;13.70;95.70
12622;DHT22;6376;48.182;-1.644;2024-02-15T03:45:12;13.70;95.60
12622;DHT22;6376;48.182;-1.644;2024-02-15T03:47:37;13.80;95.60
12622;DHT22;6376;48.182;-1.644;2024-02-15T03:50:04;13.70;95.60
12622;DHT22;6376;48.182;-1.644;2024-02-15T03:52:32;13.70;95.60
12622;DHT22;6376;48.182;-1.644;2024-02-15T03:54:58;13.70;95.60
12622;DHT22;6376;48.182;-1.644;2024-02-15T03:57:25;13.70;95.60
12622;DHT22;6376;48.182;-1.644;2024-02-15T03:59:51;13.70;95.60
12622;DHT22;6376;48.182;-1.644;2024-02-15T04:02:18;13.70;95.60
12622;DHT22;6376;48.182;-1.644;2024-02-15T04:04:44;13.70;95.60
12622;DHT22;6376;48.182;-1.644;2024-02-15T04:07:15;13.70;95.60
12622;DHT22;6376;48.182;-1.644;2024-02-15T04:09:42;13.70;95.70
12622;DHT22;6376;48.182;-1.644;2024-02-15T04:12:08;13.70;95.60
12622;DHT22;6376;48.182;-1.644;2024-02-15T04:14:34;13.70;95.60
12622;DHT22;6376;48.182;-1.644;2024-02-15T04:17:00;13.70;95.70
12622;DHT22;6376;48.182;-1.644;2024-02-15T04:19:27;13.70;95.70
12622;DHT22;6376;48.182;-1.644;2024-02-15T04:21:53;13.70;95.70
12622;DHT22;6376;48.182;-1.644;2024-02-15T04:24:21;13.70;95.70
12622;DHT22;6376;48.182;-1.644;2024-02-15T04:26:47;13.70;95.70
12622;DHT22;6376;48.182;-1.644;2024-02-15T04:29:14;13.70;95.70
12622;DHT22;6376;48.182;-1.644;2024-02-15T04:31:40;13.70;95.70
12622;DHT22;6376;48.182;-1.644;2024-02-15T04:34:08;13.70;95.70
12622;DHT22;6376;48.182;-1.644;2024-02-15T04:36:35;13.70;95.80
12622;DHT22;6376;48.182;-1.644;2024-02-15T04:39:01;13.70;95.70
12622;DHT22;6376;48.182;-1.644;2024-02-15T04:41:28;13.70;95.70
12622;DHT22;6376;48.182;-1.644;2024-02-15T04:43:54;13.70;95.70
12622;DHT22;6376;48.182;-1.644;2024-02-15T04:46:20;13.70;95.60
12622;DHT22;6376;48.182;-1.644;2024-02-15T04:48:48;13.70;95.70
12622;DHT22;6376;48.182;-1.644;2024-02-15T04:51:15;13.70;95.70
12622;DHT22;6376;48.182;-1.644;2024-02-15T04:53:44;13.70;95.70
12622;DHT22;6376;48.182;-1.644;2024-02-15T04:56:12;13.70;95.70
12622;DHT22;6376;48.182;-1.644;2024-02-15T04:58:42;13.70;95.70
12622;DHT22;6376;48.182;-1.644;2024-02-15T05:01:14;13.70;95.70
12622;DHT22;6376;48.182;-1.644;2024-02-15T05:03:41;13.60;95.70
12622;DHT22;6376;48.182;-1.644;2024-02-15T05:06:07;13.70;95.80
12622;DHT22;6376;48.182;-1.644;2024-02-15T05:08:33;13.60;95.70
12622;DHT22;6376;48.182;-1.644;2024-02-15T05:11:02;13.70;95.70
12622;DHT22;6376;48.182;-1.644;2024-02-15T05:13:29;13.60;95.70
12622;DHT22;6376;48.182;-1.644;2024-02-15T05:15:55;13.60;95.70
12622;DHT22;6376;48.182;-1.644;2024-02-15T05:18:23;13.70;95.70
12622;DHT22;6376;48.182;-1.644;2024-02-15T05:20:49;13.70;95.70
12622;DHT22;6376;48.182;-1.644;2024-02-15T05:23:15;13.70;95.60
12622;DHT22;6376;48.182;-1.644;2024-02-15T05:25:43;13.60;95.60
12622;DHT22;6376;48.182;-1.644;2024-02-15T05:28:09;13.70;95.70
12622;DHT22;6376;48.182;-1.644;2024-02-15T05:30:35;13.60;95.70
12622;DHT22;6376;48.182;-1.644;2024-02-15T05:33:03;13.60;95.60
12622;DHT22;6376;48.182;-1.644;2024-02-15T05:35:29;13.60;95.70
12622;DHT22;6376;48.182;-1.644;2024-02-15T05:37:54;13.60;95.70
12622;DHT22;6376;48.182;-1.644;2024-02-15T05:40:21;13.60;95.70
12622;DHT22;6376;48.182;-1.644;2024-02-15T05:42:47;13.60;95.70
12622;DHT22;6376;48.182;-1.644;2024-02-15T05:47:51;13.60;95.70
12622;DHT22;6376;48.182;-1.644;2024-02-15T05:50:17;13.60;95.60
12622;DHT22;6376;48.182;-1.644;2024-02-15T05:52:49;13.60;95.70
12622;DHT22;6376;48.182;-1.644;2024-02-15T05:55:14;13.60;95.70
12622;DHT22;6376;48.182;-1.644;2024-02-15T05:57:43;13.60;95.70
12622;DHT22;6376;48.182;-1.644;2024-02-15T06:00:09;13.60;95.60
12622;DHT22;6376;48.182;-1.644;2024-02-15T06:02:35;13.60;95.60
12622;DHT22;6376;48.182;-1.644;2024-02-15T06:05:00;13.60;95.60
12622;DHT22;6376;48.182;-1.644;2024-02-15T06:07:29;13.60;95.60
12622;DHT22;6376;48.182;-1.644;2024-02-15T06:09:59;13.60;95.60
12622;DHT22;6376;48.182;-1.644;2024-02-15T06:12:29;13.60;95.60
12622;DHT22;6376;48.182;-1.644;2024-02-15T06:14:54;13.60;95.60
12622;DHT22;6376;48.182;-1.644;2024-02-15T06:17:20;13.60;95.60
12622;DHT22;6376;48.182;-1.644;2024-02-15T06:19:46;13.60;95.60
12622;DHT22;6376;48.182;-1.644;2024-02-15T06:22:11;13.60;95.60
12622;DHT22;6376;48.182;-1.644;2024-02-15T06:24:38;13.60;95.60
12622;DHT22;6376;48.182;-1.644;2024-02-15T06:27:05;13.60;95.60
12622;DHT22;6376;48.182;-1.644;2024-02-15T06:29:31;13.60;95.60
12622;DHT22;6376;48.182;-1.644;2024-02-15T06:32:15;13.60;95.60
12622;DHT22;6376;48.182;-1.644;2024-02-15T06:34:59;13.60;95.60
12622;DHT22;6376;48.182;-1.644;2024-02-15T06:37:43;13.60;95.60
12622;DHT22;6376;48.182;-1.644;2024-02-15T06:40:27;13.60;95.60
12622;DHT22;6376;48.182;-1.644;2024-02-15T06:42:54;13.60;95.60
12622;DHT22;6376;48.182;-1.644;2024-02-15T06:45:19;13.60;95.60
12622;DHT22;6376;48.182;-1.644;2024-02-15T06:47:45;13.60;95.60
12622;DHT22;6376;48.182;-1.644;2024-02-15T06:50:14;13.60;95.60
12622;DHT22;6376;48.182;-1.644;2024-02-15T06:52:40;13.60;95.60
12622;DHT22;6376;48.182;-1.644;2024-02-15T06:55:07;13.60;95.60
12622;DHT22;6376;48.182;-1.644;2024-02-15T06:57:34;13.60;95.60
12622;DHT22;6376;48.182;-1.644;2024-02-15T07:00:06;13.60;95.60
12622;DHT22;6376;48.182;-1.644;2024-02-15T07:02:35;13.60;95.60
12622;DHT22;6376;48.182;-1.644;2024-02-15T07:05:01;13.60;95.60
12622;DHT22;6376;48.182;-1.644;2024-02-15T07:07:28;13.60;95.60
12622;DHT22;6376;48.182;-1.644;2024-02-15T07:09:54;13.60;95.60
12622;DHT22;6376;48.182;-1.644;2024-02-15T07:12:20;13.60;95.60
12622;DHT22;6376;48.182;-1.644;2024-02-15T07:14:47;13.60;95.60
12622;DHT22;6376;48.182;-1.644;2024-02-15T07:17:13;13.60;95.60
12622;DHT22;6376;48.182;-1.644;2024-02-15T07:19:43;13.60;95.60
12622;DHT22;6376;48.182;-1.644;2024-02-15T07:22:10;13.60;95.60
12622;DHT22;6376;48.182;-1.644;2024-02-15T07:24:35;13.60;95.50
12622;DHT22;6376;48.182;-1.644;2024-02-15T07:27:04;13.60;95.60
12622;DHT22;6376;48.182;-1.644;2024-02-15T07:29:30;13.60;95.60
12622;DHT22;6376;48.182;-1.644;2024-02-15T07:32:01;13.60;95.60
12622;DHT22;6376;48.182;-1.644;2024-02-15T07:34:32;13.60;95.60
12622;DHT22;6376;48.182;-1.644;2024-02-15T07:37:02;13.60;95.50
12622;DHT22;6376;48.182;-1.644;2024-02-15T07:39:28;13.60;95.50
12622;DHT22;6376;48.182;-1.644;2024-02-15T07:41:54;13.60;95.80
12622;DHT22;6376;48.182;-1.644;2024-02-15T07:44:20;13.60;95.50
12622;DHT22;6376;48.182;-1.644;2024-02-15T07:46:47;13.60;95.50
12622;DHT22;6376;48.182;-1.644;2024-02-15T07:49:13;13.60;95.80
12622;DHT22;6376;48.182;-1.644;2024-02-15T07:51:38;13.60;95.40
12622;DHT22;6376;48.182;-1.644;2024-02-15T07:54:04;13.60;95.40
12622;DHT22;6376;48.182;-1.644;2024-02-15T07:56:30;13.60;95.40
12622;DHT22;6376;48.182;-1.644;2024-02-15T07:58:55;13.60;95.40
12622;DHT22;6376;48.182;-1.644;2024-02-15T08:01:22;13.60;95.40
12622;DHT22;6376;48.182;-1.644;2024-02-15T08:03:48;13.60;95.40
12622;DHT22;6376;48.182;-1.644;2024-02-15T08:06:16;13.60;95.30
12622;DHT22;6376;48.182;-1.644;2024-02-15T08:08:42;13.60;95.30
12622;DHT22;6376;48.182;-1.644;2024-02-15T08:11:11;13.60;95.30
12622;DHT22;6376;48.182;-1.644;2024-02-15T08:13:47;13.60;95.30
12622;DHT22;6376;48.182;-1.644;2024-02-15T08:16:15;13.60;95.20
12622;DHT22;6376;48.182;-1.644;2024-02-15T08:18:42;13.60;95.20
12622;DHT22;6376;48.182;-1.644;2024-02-15T08:21:09;13.60;95.20
12622;DHT22;6376;48.182;-1.644;2024-02-15T08:23:36;13.60;95.20
12622;DHT22;6376;48.182;-1.644;2024-02-15T08:26:02;13.60;95.20
12622;DHT22;6376;48.182;-1.644;2024-02-15T08:28:27;13.70;95.20
12622;DHT22;6376;48.182;-1.644;2024-02-15T08:30:55;13.60;95.20
12622;DHT22;6376;48.182;-1.644;2024-02-15T08:33:21;13.60;95.20
12622;DHT22;6376;48.182;-1.644;2024-02-15T08:35:48;13.60;95.20
12622;DHT22;6376;48.182;-1.644;2024-02-15T08:38:14;13.60;95.20
12622;DHT22;6376;48.182;-1.644;2024-02-15T08:40:40;13.60;95.20
12622;DHT22;6376;48.182;-1.644;2024-02-15T08:43:05;13.60;95.20
12622;DHT22;6376;48.182;-1.644;2024-02-15T08:45:31;13.60;95.20
12622;DHT22;6376;48.182;-1.644;2024-02-15T08:47:57;13.70;95.20
12622;DHT22;6376;48.182;-1.644;2024-02-15T08:50:23;13.70;95.10
12622;DHT22;6376;48.182;-1.644;2024-02-15T08:52:49;13.70;95.10
12622;DHT22;6376;48.182;-1.644;2024-02-15T08:55:15;13.70;95.10
12622;DHT22;6376;48.182;-1.644;2024-02-15T08:57:42;13.70;95.10
12622;DHT22;6376;48.182;-1.644;2024-02-15T09:00:10;13.70;95.10
12622;DHT22;6376;48.182;-1.644;2024-02-15T09:02:46;13.70;95.00
12622;DHT22;6376;48.182;-1.644;2024-02-15T09:05:12;13.70;95.10
12622;DHT22;6376;48.182;-1.644;2024-02-15T09:07:44;13.70;95.10
12622;DHT22;6376;48.182;-1.644;2024-02-15T09:10:13;13.70;95.00
12622;DHT22;6376;48.182;-1.644;2024-02-15T09:12:40;13.70;95.00
12622;DHT22;6376;48.182;-1.644;2024-02-15T09:15:09;13.70;94.90
12622;DHT22;6376;48.182;-1.644;2024-02-15T09:17:36;13.70;95.00
12622;DHT22;6376;48.182;-1.644;2024-02-15T09:20:09;13.70;94.90
12622;DHT22;6376;48.182;-1.644;2024-02-15T09:23:00;13.70;94.90
12622;DHT22;6376;48.182;-1.644;2024-02-15T09:25:29;13.80;94.90
12622;DHT22;6376;48.182;-1.644;2024-02-15T09:27:56;13.70;94.90
12622;DHT22;6376;48.182;-1.644;2024-02-15T09:30:22;13.80;94.80
12622;DHT22;6376;48.182;-1.644;2024-02-15T09:32:50;13.80;94.80
12622;DHT22;6376;48.182;-1.644;2024-02-15T09:35:16;13.90;94.70
12622;DHT22;6376;48.182;-1.644;2024-02-15T09:37:45;13.90;94.70
12622;DHT22;6376;48.182;-1.644;2024-02-15T09:40:15;13.90;94.80
12622;DHT22;6376;48.182;-1.644;2024-02-15T09:42:43;14.00;94.60
12622;DHT22;6376;48.182;-1.644;2024-02-15T09:45:11;14.00;94.50
12622;DHT22;6376;48.182;-1.644;2024-02-15T09:47:42;14.00;94.50
12622;DHT22;6376;48.182;-1.644;2024-02-15T09:50:08;14.10;94.20
12622;DHT22;6376;48.182;-1.644;2024-02-15T09:52:38;14.20;94.00
12622;DHT22;6376;48.182;-1.644;2024-02-15T09:55:04;14.30;93.70
12622;DHT22;6376;48.182;-1.644;2024-02-15T09:57:31;14.40;93.50
12622;DHT22;6376;48.182;-1.644;2024-02-15T10:00:00;14.50;93.30
12622;DHT22;6376;48.182;-1.644;2024-02-15T10:02:27;14.60;93.20
12622;DHT22;6376;48.182;-1.644;2024-02-15T10:04:53;14.60;93.30
12622;DHT22;6376;48.182;-1.644;2024-02-15T10:07:25;14.60;93.40
12622;DHT22;6376;48.182;-1.644;2024-02-15T10:09:53;14.60;93.50
12622;DHT22;6376;48.182;-1.644;2024-02-15T10:12:18;14.50;93.70
12622;DHT22;6376;48.182;-1.644;2024-02-15T10:14:50;14.40;93.50
12622;DHT22;6376;48.182;-1.644;2024-02-15T10:17:17;14.40;93.40
12622;DHT22;6376;48.182;-1.644;2024-02-15T10:19:43;14.40;93.60
12622;DHT22;6376;48.182;-1.644;2024-02-15T10:22:10;14.30;93.60
12622;DHT22;6376;48.182;-1.644;2024-02-15T10:24:36;14.30;93.50
12622;DHT22;6376;48.182;-1.644;2024-02-15T10:27:03;14.30;93.50
12622;DHT22;6376;48.182;-1.644;2024-02-15T10:29:31;14.30;93.60
12622;DHT22;6376;48.182;-1.644;2024-02-15T10:31:57;14.20;93.50
12622;DHT22;6376;48.182;-1.644;2024-02-15T10:34:27;14.20;93.70
12622;DHT22;6376;48.182;-1.644;2024-02-15T10:37:16;14.20;93.60
12622;DHT22;6376;48.182;-1.644;2024-02-15T10:39:42;14.20;93.70
12622;DHT22;6376;48.182;-1.644;2024-02-15T10:42:08;14.20;93.70
12622;DHT22;6376;48.182;-1.644;2024-02-15T10:44:37;14.20;93.80
12622;DHT22;6376;48.182;-1.644;2024-02-15T10:47:04;14.20;93.80
12622;DHT22;6376;48.182;-1.644;2024-02-15T10:49:33;14.20;93.80
12622;DHT22;6376;48.182;-1.644;2024-02-15T10:52:00;14.20;93.70
12622;DHT22;6376;48.182;-1.644;2024-02-15T10:57:05;14.20;93.70
12622;DHT22;6376;48.182;-1.644;2024-02-15T10:59:35;14.30;93.50
12622;DHT22;6376;48.182;-1.644;2024-02-15T11:02:26;14.50;93.10
12622;DHT22;6376;48.182;-1.644;2024-02-15T11:04:58;14.50;93.20
12622;DHT22;6376;48.182;-1.644;2024-02-15T11:07:26;14.60;93.20
12622;DHT22;6376;48.182;-1.644;2024-02-15T11:09:55;14.80;92.60
12622;DHT22;6376;48.182;-1.644;2024-02-15T11:12:24;14.80;92.30
12622;DHT22;6376;48.182;-1.644;2024-02-15T11:14:54;14.90;92.30
12622;DHT22;6376;48.182;-1.644;2024-02-15T11:20:06;14.80;92.50
12622;DHT22;6376;48.182;-1.644;2024-02-15T11:22:36;14.80;92.40
12622;DHT22;6376;48.182;-1.644;2024-02-15T11:25:03;14.80;92.50
12622;DHT22;6376;48.182;-1.644;2024-02-15T11:27:38;14.80;92.60
12622;DHT22;6376;48.182;-1.644;2024-02-15T11:30:05;14.90;92.60
12622;DHT22;6376;48.182;-1.644;2024-02-15T11:32:49;15.00;92.30
12622;DHT22;6376;48.182;-1.644;2024-02-15T11:35:21;15.10;91.70
12622;DHT22;6376;48.182;-1.644;2024-02-15T11:40:18;15.00;91.70
12622;DHT22;6376;48.182;-1.644;2024-02-15T11:42:46;15.10;91.90
12622;DHT22;6376;48.182;-1.644;2024-02-15T11:45:13;15.10;92.00
12622;DHT22;6376;48.182;-1.644;2024-02-15T11:47:40;15.00;92.10
12622;DHT22;6376;48.182;-1.644;2024-02-15T11:50:14;14.90;92.20
12622;DHT22;6376;48.182;-1.644;2024-02-15T11:53:04;14.90;92.00
12622;DHT22;6376;48.182;-1.644;2024-02-15T11:55:39;14.90;92.30
12622;DHT22;6376;48.182;-1.644;2024-02-15T11:58:08;14.80;92.50
12622;DHT22;6376;48.182;-1.644;2024-02-15T12:00:34;14.80;92.60
12622;DHT22;6376;48.182;-1.644;2024-02-15T12:03:19;14.80;92.50
12622;DHT22;6376;48.182;-1.644;2024-02-15T12:06:04;14.80;92.60
12622;DHT22;6376;48.182;-1.644;2024-02-15T12:08:51;14.80;92.50
12622;DHT22;6376;48.182;-1.644;2024-02-15T12:11:36;14.80;92.50
12622;DHT22;6376;48.182;-1.644;2024-02-15T12:14:20;14.80;92.60
12622;DHT22;6376;48.182;-1.644;2024-02-15T12:17:06;14.80;92.50
12622;DHT22;6376;48.182;-1.644;2024-02-15T12:19:52;14.80;92.50
12622;DHT22;6376;48.182;-1.644;2024-02-15T12:24:58;14.70;92.90
12622;DHT22;6376;48.182;-1.644;2024-02-15T12:27:25;14.70;92.80
12622;DHT22;6376;48.182;-1.644;2024-02-15T12:29:59;14.70;92.90
12622;DHT22;6376;48.182;-1.644;2024-02-15T12:32:26;14.70;92.90
12622;DHT22;6376;48.182;-1.644;2024-02-15T12:35:09;14.70;92.80
12622;DHT22;6376;48.182;-1.644;2024-02-15T12:37:36;14.70;92.80
12622;DHT22;6376;48.182;-1.644;2024-02-15T12:40:16;14.70;92.80
12622;DHT22;6376;48.182;-1.644;2024-02-15T12:42:46;14.70;92.90
12622;DHT22;6376;48.182;-1.644;2024-02-15T12:45:17;14.70;93.00
12622;DHT22;6376;48.182;-1.644;2024-02-15T12:47:52;14.70;93.10
12622;DHT22;6376;48.182;-1.644;2024-02-15T12:50:19;14.70;93.00
12622;DHT22;6376;48.182;-1.644;2024-02-15T12:52:46;14.70;93.00
12622;DHT22;6376;48.182;-1.644;2024-02-15T12:55:19;14.70;92.90
12622;DHT22;6376;48.182;-1.644;2024-02-15T12:57:49;14.70;92.70
12622;DHT22;6376;48.182;-1.644;2024-02-15T13:00:19;14.70;92.80
12622;DHT22;6376;48.182;-1.644;2024-02-15T13:02:49;14.70;92.90
12622;DHT22;6376;48.182;-1.644;2024-02-15T13:05:18;14.60;93.00
12622;DHT22;6376;48.182;-1.644;2024-02-15T13:07:46;14.60;93.00
12622;DHT22;6376;48.182;-1.644;2024-02-15T13:10:12;14.70;93.00
12622;DHT22;6376;48.182;-1.644;2024-02-15T13:12:43;14.70;93.00
12622;DHT22;6376;48.182;-1.644;2024-02-15T13:15:11;14.70;93.20
12622;DHT22;6376;48.182;-1.644;2024-02-15T13:17:40;14.70;93.20
12622;DHT22;6376;48.182;-1.644;2024-02-15T13:20:07;14.70;93.00
12622;DHT22;6376;48.182;-1.644;2024-02-15T13:22:37;14.70;93.10
12622;DHT22;6376;48.182;-1.644;2024-02-15T13:25:05;14.70;93.00
12622;DHT22;6376;48.182;-1.644;2024-02-15T13:27:33;14.70;92.90
12622;DHT22;6376;48.182;-1.644;2024-02-15T13:29:58;14.70;92.90
12622;DHT22;6376;48.182;-1.644;2024-02-15T13:32:24;14.70;93.10
12622;DHT22;6376;48.182;-1.644;2024-02-15T13:34:50;14.70;93.20
12622;DHT22;6376;48.182;-1.644;2024-02-15T13:37:20;14.70;93.20
12622;DHT22;6376;48.182;-1.644;2024-02-15T13:39:49;14.70;93.20
12622;DHT22;6376;48.182;-1.644;2024-02-15T13:42:16;14.70;93.20
12622;DHT22;6376;48.182;-1.644;2024-02-15T13:44:43;14.70;93.20
12622;DHT22;6376;48.182;-1.644;2024-02-15T13:47:09;14.70;93.10
12622;DHT22;6376;48.182;-1.644;2024-02-15T13:49:37;14.70;93.00
12622;DHT22;6376;48.182;-1.644;2024-02-15T13:52:03;14.70;93.10
12622;DHT22;6376;48.182;-1.644;2024-02-15T13:54:32;14.70;93.00
12622;DHT22;6376;48.182;-1.644;2024-02-15T13:57:01;14.70;93.20
12622;DHT22;6376;48.182;-1.644;2024-02-15T13:59:28;14.70;93.20
12622;DHT22;6376;48.182;-1.644;2024-02-15T14:01:56;14.70;93.00
12622;DHT22;6376;48.182;-1.644;2024-02-15T14:04:22;14.70;93.20
12622;DHT22;6376;48.182;-1.644;2024-02-15T14:06:48;14.70;93.10
12622;DHT22;6376;48.182;-1.644;2024-02-15T14:09:14;14.70;92.90
12622;DHT22;6376;48.182;-1.644;2024-02-15T14:11:39;14.70;92.80
12622;DHT22;6376;48.182;-1.644;2024-02-15T14:14:05;14.70;92.80
12622;DHT22;6376;48.182;-1.644;2024-02-15T14:16:32;14.70;92.90
12622;DHT22;6376;48.182;-1.644;2024-02-15T14:18:58;14.70;93.00
12622;DHT22;6376;48.182;-1.644;2024-02-15T14:21:25;14.70;92.90
12622;DHT22;6376;48.182;-1.644;2024-02-15T14:23:51;14.70;93.10
12622;DHT22;6376;48.182;-1.644;2024-02-15T14:26:16;14.70;93.00
12622;DHT22;6376;48.182;-1.644;2024-02-15T14:28:43;14.70;93.00
12622;DHT22;6376;48.182;-1.644;2024-02-15T14:31:11;14.70;93.00
12622;DHT22;6376;48.182;-1.644;2024-02-15T14:34:03;14.70;92.90
12622;DHT22;6376;48.182;-1.644;2024-02-15T14:36:28;14.70;93.00
12622;DHT22;6376;48.182;-1.644;2024-02-15T14:38:54;14.80;93.00
12622;DHT22;6376;48.182;-1.644;2024-02-15T14:41:20;14.80;92.90
12622;DHT22;6376;48.182;-1.644;2024-02-15T14:43:47;14.80;92.70
12622;DHT22;6376;48.182;-1.644;2024-02-15T14:46:13;14.80;92.70
12622;DHT22;6376;48.182;-1.644;2024-02-15T14:48:38;14.80;92.80
12622;DHT22;6376;48.182;-1.644;2024-02-15T14:51:05;14.70;93.20
12622;DHT22;6376;48.182;-1.644;2024-02-15T14:53:31;14.70;93.30
12622;DHT22;6376;48.182;-1.644;2024-02-15T14:55:57;14.70;93.10
12622;DHT22;6376;48.182;-1.644;2024-02-15T14:58:23;14.80;92.90
12622;DHT22;6376;48.182;-1.644;2024-02-15T15:00:48;14.80;92.80
12622;DHT22;6376;48.182;-1.644;2024-02-15T15:03:15;14.80;92.90
12622;DHT22;6376;48.182;-1.644;2024-02-15T15:05:42;14.80;93.20
12622;DHT22;6376;48.182;-1.644;2024-02-15T15:08:26;14.80;93.10
12622;DHT22;6376;48.182;-1.644;2024-02-15T15:11:10;14.80;93.20
12622;DHT22;6376;48.182;-1.644;2024-02-15T15:13:54;14.80;93.00
12622;DHT22;6376;48.182;-1.644;2024-02-15T15:16:20;14.80;93.20
12622;DHT22;6376;48.182;-1.644;2024-02-15T15:18:47;14.80;93.20
12622;DHT22;6376;48.182;-1.644;2024-02-15T15:21:15;14.80;93.10
12622;DHT22;6376;48.182;-1.644;2024-02-15T15:23:42;14.80;93.20
12622;DHT22;6376;48.182;-1.644;2024-02-15T15:26:08;14.80;93.30
12622;DHT22;6376;48.182;-1.644;2024-02-15T15:28:37;14.80;93.30
12622;DHT22;6376;48.182;-1.644;2024-02-15T15:31:03;14.80;93.20
12622;DHT22;6376;48.182;-1.644;2024-02-15T15:33:30;14.80;93.20
12622;DHT22;6376;48.182;-1.644;2024-02-15T15:36:02;14.80;93.30
12622;DHT22;6376;48.182;-1.644;2024-02-15T15:38:31;14.80;93.20
12622;DHT22;6376;48.182;-1.644;2024-02-15T15:40:57;14.80;93.00
12622;DHT22;6376;48.182;-1.644;2024-02-15T15:43:23;14.80;93.10
12622;DHT22;6376;48.182;-1.644;2024-02-15T15:45:49;14.80;93.30
12622;DHT22;6376;48.182;-1.644;2024-02-15T15:48:20;14.80;93.20